KAUS

Austin-Bergstrom International Airport

Airport
ICAO code
KAUS
IATA Code
AUS
Summary
ICAO Region
NAM
ICAO Territory
Location

Austin, Texas

Serving
Austin
Elevation
542 ft
Coordinates
30° 12' 9" N , 97° 40' 5" W
KCC
Airport LOS
Parallel Runway Operation
Airport WX
Cumulonimbus
Metar
KAUS 160753Z 17012KT 10SM BKN017 BKN023 22/19 A2978 RMK AO2 SLP077 T02220194

Description

Austin-Bergstrom International Airport is a public use airport located 5 nm southeast of the central business district of Austin, in Travis County, Texas.

Airport map

Aerial View

SKYbrary Partners:

Safety knowledge contributed by: